createdAt,value
2018-06-11T00:01:30.835Z,8.50
2018-06-11T00:03:59.007Z,7.93
2018-06-11T00:06:27.187Z,8.37
2018-06-11T00:08:55.363Z,8.00
2018-06-11T00:11:23.537Z,8.60
2018-06-11T00:13:51.735Z,7.83
2018-06-11T00:16:19.662Z,8.60
2018-06-11T00:18:47.848Z,8.17
2018-06-11T00:21:16.044Z,8.90
2018-06-11T00:23:44.232Z,8.10
2018-06-11T00:26:12.392Z,9.10
2018-06-11T00:28:40.337Z,8.67
2018-06-11T00:31:08.508Z,10.50
2018-06-11T00:33:36.700Z,8.07
2018-06-11T00:36:04.896Z,9.63
2018-06-11T00:38:33.063Z,9.77
2018-06-11T00:41:01.252Z,9.67
2018-06-11T00:43:29.427Z,8.70
2018-06-11T00:45:57.629Z,9.40
2018-06-11T00:48:25.812Z,9.13
2018-06-11T00:50:53.983Z,8.40
2018-06-11T00:53:22.212Z,9.33
2018-06-11T00:56:01.771Z,9.77
2018-06-11T00:58:29.976Z,10.67
2018-06-11T01:00:58.147Z,9.80
2018-06-11T01:03:26.352Z,9.50
2018-06-11T01:05:54.512Z,10.57
2018-06-11T01:08:22.719Z,10.30
2018-06-11T01:10:50.887Z,10.80
2018-06-11T01:13:19.072Z,11.60
2018-06-11T01:15:47.254Z,11.00
2018-06-11T01:18:15.433Z,9.07
2018-06-11T01:20:43.628Z,11.20
2018-06-11T01:23:11.811Z,9.93
2018-06-11T01:25:39.984Z,10.80
2018-06-11T01:28:08.169Z,11.87
2018-06-11T01:30:36.408Z,12.50
2018-06-11T01:33:04.685Z,11.87
2018-06-11T01:35:32.884Z,11.70
2018-06-11T01:38:01.091Z,13.40
2018-06-11T01:40:29.269Z,11.87
2018-06-11T01:42:57.222Z,12.33
2018-06-11T01:45:25.409Z,12.70
2018-06-11T01:47:53.346Z,11.70
2018-06-11T01:50:21.533Z,12.30
2018-06-11T01:52:49.716Z,13.57
2018-06-11T01:55:17.916Z,12.50
2018-06-11T01:57:46.115Z,11.70
2018-06-11T02:00:14.343Z,13.00
2018-06-11T02:02:42.292Z,12.30
2018-06-11T02:05:10.454Z,11.17
2018-06-11T02:07:38.649Z,11.90
2018-06-11T02:10:06.833Z,11.93
2018-06-11T02:12:34.779Z,11.33
2018-06-11T02:15:03.685Z,12.13
2018-06-11T02:17:31.864Z,10.43
2018-06-11T02:20:00.045Z,11.33
2018-06-11T02:22:27.982Z,11.40
2018-06-11T02:24:56.159Z,10.63
2018-06-11T02:27:24.336Z,9.23
2018-06-11T02:29:52.505Z,10.10
2018-06-11T02:32:20.680Z,9.23
2018-06-11T02:34:48.892Z,10.03
2018-06-11T02:37:17.074Z,10.90
2018-06-11T02:39:45.291Z,9.07
2018-06-11T02:42:13.440Z,9.50
2018-06-11T02:44:41.636Z,10.33
2018-06-11T02:47:09.807Z,10.87
2018-06-11T02:49:37.995Z,9.10
2018-06-11T02:52:06.199Z,10.40
2018-06-11T02:54:34.141Z,10.70
2018-06-11T02:57:08.783Z,10.30
2018-06-11T02:59:36.707Z,11.37
2018-06-11T03:02:05.283Z,10.40
2018-06-11T03:04:33.479Z,9.87
2018-06-11T03:07:01.736Z,10.80
2018-06-11T03:09:30.156Z,10.33
2018-06-11T03:11:58.324Z,10.87
2018-06-11T03:14:26.520Z,11.87
2018-06-11T03:16:54.456Z,11.70
2018-06-11T03:19:22.638Z,10.70
2018-06-11T03:21:50.805Z,9.93
2018-06-11T03:24:18.979Z,10.60
2018-06-11T03:26:47.172Z,11.20
2018-06-11T03:29:15.111Z,12.40
2018-06-11T03:31:43.283Z,11.03
2018-06-11T03:34:11.470Z,10.87
2018-06-11T03:36:39.644Z,12.43
2018-06-11T03:39:08.735Z,11.97
2018-06-11T03:41:38.260Z,12.03
2018-06-11T03:44:06.431Z,12.00
2018-06-11T03:46:34.375Z,11.87
2018-06-11T03:49:02.576Z,12.00
2018-06-11T03:51:30.516Z,11.70
2018-06-11T03:53:58.687Z,11.10
2018-06-11T03:56:26.879Z,11.70
2018-06-11T03:58:55.076Z,12.57
2018-06-11T04:01:23.263Z,11.87
2018-06-11T04:03:51.464Z,11.93
2018-06-11T04:06:19.652Z,11.63
2018-06-11T04:08:47.879Z,11.40
2018-06-11T04:11:16.062Z,11.43
2018-06-11T04:13:44.237Z,13.17
2018-06-11T04:16:12.419Z,12.90
2018-06-11T04:18:40.619Z,13.43
2018-06-11T04:21:08.841Z,12.53
2018-06-11T04:23:37.037Z,11.20
2018-06-11T04:26:05.547Z,12.70
2018-06-11T04:28:33.740Z,12.67
2018-06-11T04:31:01.980Z,12.00
2018-06-11T04:33:30.165Z,11.70
2018-06-11T04:35:58.369Z,10.57
2018-06-11T04:38:26.553Z,12.20
2018-06-11T04:40:54.735Z,12.30
2018-06-11T04:43:22.687Z,12.67
2018-06-11T04:45:50.881Z,11.90
2018-06-11T04:48:19.075Z,11.60
2018-06-11T04:50:47.268Z,11.77
2018-06-11T04:53:15.474Z,11.70
2018-06-11T04:55:43.648Z,10.67
2018-06-11T04:58:12.133Z,9.90
2018-06-11T05:00:40.315Z,11.10
2018-06-11T05:03:08.828Z,11.23
2018-06-11T05:05:37.329Z,11.23
2018-06-11T05:08:05.780Z,11.13
2018-06-11T05:10:34.236Z,10.70
2018-06-11T05:13:03.437Z,10.30
2018-06-11T05:15:31.688Z,10.87
2018-06-11T05:17:59.874Z,11.23
2018-06-11T05:20:28.089Z,10.60
2018-06-11T05:22:56.274Z,10.93
2018-06-11T05:25:24.442Z,10.27
2018-06-11T05:27:52.666Z,8.73
2018-06-11T05:30:20.853Z,8.87
2018-06-11T05:32:49.032Z,9.80
2018-06-11T05:35:16.969Z,8.83
2018-06-11T05:37:45.813Z,9.23
2018-06-11T05:40:14.400Z,8.70
2018-06-11T05:42:42.688Z,7.87
2018-06-11T05:45:10.890Z,7.93
2018-06-11T05:47:39.079Z,9.50
2018-06-11T05:50:07.307Z,8.20
2018-06-11T05:52:35.500Z,8.73
2018-06-11T05:55:03.689Z,9.67
2018-06-11T05:57:31.872Z,8.50
2018-06-11T06:00:00.093Z,7.90
2018-06-11T06:02:28.296Z,8.33
2018-06-11T06:04:56.480Z,7.90
2018-06-11T06:07:24.687Z,6.60
2018-06-11T06:09:52.872Z,6.10
2018-06-11T06:12:21.062Z,7.10
2018-06-11T06:14:49.224Z,6.17
2018-06-11T06:17:17.447Z,6.37
2018-06-11T06:19:45.607Z,5.63
2018-06-11T06:22:13.792Z,5.90
2018-06-11T06:24:41.975Z,5.47
2018-06-11T06:27:10.181Z,6.40
2018-06-11T06:29:38.388Z,5.73
2018-06-11T06:32:06.592Z,5.50
2018-06-11T06:34:34.892Z,5.63
2018-06-11T06:37:03.007Z,5.30
2018-06-11T06:39:31.184Z,7.17
2018-06-11T06:41:59.389Z,5.20
2018-06-11T06:44:27.576Z,6.80
2018-06-11T06:46:55.755Z,4.93
2018-06-11T06:49:23.932Z,6.30
2018-06-11T06:51:52.160Z,5.67
2018-06-11T06:54:20.430Z,5.67
2018-06-11T06:56:48.608Z,5.40
2018-06-11T06:59:16.808Z,4.80
2018-06-11T07:01:44.999Z,4.77
2018-06-11T07:04:13.185Z,4.60
2018-06-11T07:06:41.127Z,5.37
2018-06-11T07:09:09.308Z,5.30
2018-06-11T07:11:37.481Z,5.77
2018-06-11T07:14:05.674Z,4.70
2018-06-11T07:16:33.619Z,4.83
2018-06-11T07:19:01.866Z,4.73
2018-06-11T07:21:30.033Z,4.93
2018-06-11T07:23:58.232Z,5.13
2018-06-11T07:26:26.408Z,4.93
2018-06-11T07:28:54.585Z,5.27
2018-06-11T07:31:22.810Z,5.00
2018-06-11T07:33:50.722Z,4.90
2018-06-11T07:36:18.910Z,5.17
2018-06-11T07:38:47.084Z,5.20
2018-06-11T07:41:15.279Z,5.70
2018-06-11T07:43:43.210Z,5.33
2018-06-11T07:46:11.396Z,5.17
2018-06-11T07:48:39.585Z,4.80
2018-06-11T07:51:07.757Z,5.00
2018-06-11T07:53:35.944Z,4.43
2018-06-11T07:56:04.255Z,4.67
2018-06-11T07:58:32.459Z,5.17
2018-06-11T08:01:00.676Z,5.10
2018-06-11T08:03:28.863Z,5.00
2018-06-11T08:05:57.034Z,4.90
2018-06-11T08:08:25.553Z,5.00
2018-06-11T08:10:53.761Z,4.53
2018-06-11T08:13:21.960Z,5.17
2018-06-11T08:15:50.125Z,4.87
2018-06-11T08:18:18.044Z,3.60
2018-06-11T08:20:46.255Z,4.07
2018-06-11T08:23:14.515Z,4.70
2018-06-11T08:25:43.056Z,4.00
2018-06-11T08:28:11.664Z,4.50
2018-06-11T08:30:39.852Z,4.53
2018-06-11T08:33:08.067Z,3.67
2018-06-11T08:35:36.236Z,5.13
2018-06-11T08:38:04.422Z,3.93
2018-06-11T08:40:32.607Z,5.20
2018-06-11T08:43:00.792Z,3.93
2018-06-11T08:45:29.268Z,4.50
2018-06-11T08:47:57.443Z,4.93
2018-06-11T08:50:25.624Z,4.63
2018-06-11T08:52:53.811Z,3.80
2018-06-11T08:55:22.020Z,4.10
2018-06-11T08:57:50.288Z,4.77
2018-06-11T09:00:18.224Z,4.20
2018-06-11T09:02:46.405Z,4.97
2018-06-11T09:05:14.674Z,4.70
2018-06-11T09:07:42.835Z,4.57
2018-06-11T09:10:11.013Z,4.43
2018-06-11T09:12:39.225Z,4.93
2018-06-11T09:15:07.364Z,5.77
2018-06-11T09:17:35.536Z,5.50
2018-06-11T09:20:03.741Z,4.60
2018-06-11T09:22:31.908Z,3.97
2018-06-11T09:25:00.090Z,4.97
2018-06-11T09:27:28.264Z,5.73
2018-06-11T09:29:56.495Z,4.40
2018-06-11T09:32:24.689Z,4.70
2018-06-11T09:34:53.217Z,4.20
2018-06-11T09:37:21.441Z,6.20
2018-06-11T09:39:49.624Z,5.23
2018-06-11T09:42:17.830Z,5.23
2018-06-11T09:44:45.763Z,5.20
2018-06-11T09:47:13.999Z,5.27
2018-06-11T09:49:42.200Z,5.50
2018-06-11T09:52:10.376Z,4.20
2018-06-11T09:54:38.566Z,4.70
2018-06-11T09:57:06.840Z,5.13
2018-06-11T09:59:35.015Z,5.00
2018-06-11T10:02:03.205Z,4.97
2018-06-11T10:04:31.167Z,4.20
2018-06-11T10:06:59.355Z,4.67
2018-06-11T10:09:27.624Z,4.60
2018-06-11T10:11:56.268Z,3.93
2018-06-11T10:14:24.460Z,4.20
2018-06-11T10:16:52.649Z,6.60
2018-06-11T10:19:20.902Z,5.03
2018-06-11T10:21:49.045Z,3.90
2018-06-11T10:24:17.223Z,4.60
2018-06-11T10:26:45.388Z,4.30
2018-06-11T10:29:13.585Z,4.17
2018-06-11T10:31:42.157Z,5.10
2018-06-11T10:34:10.338Z,4.43
2018-06-11T10:36:38.576Z,4.47
2018-06-11T10:39:08.182Z,4.50
2018-06-11T10:41:36.924Z,4.17
2018-06-11T10:44:05.134Z,4.83
2018-06-11T10:46:33.071Z,3.93
2018-06-11T10:49:01.267Z,4.40
2018-06-11T10:51:29.737Z,5.40
2018-06-11T10:53:58.188Z,4.50
2018-06-11T10:56:26.364Z,4.10
2018-06-11T10:58:54.532Z,3.57
2018-06-11T11:01:22.725Z,4.50
2018-06-11T11:03:50.897Z,4.50
2018-06-11T11:06:19.072Z,3.63
2018-06-11T11:08:47.320Z,4.37
2018-06-11T11:11:16.128Z,3.90
2018-06-11T11:13:44.573Z,3.80
2018-06-11T11:16:13.077Z,4.23
2018-06-11T11:18:42.016Z,4.50
2018-06-11T11:21:09.951Z,5.10
2018-06-11T11:23:38.136Z,5.90
2018-06-11T11:26:06.381Z,4.90
2018-06-11T11:28:34.564Z,4.70
2018-06-11T11:31:02.810Z,4.50
2018-06-11T11:33:30.967Z,4.83
2018-06-11T11:35:59.168Z,5.43
2018-06-11T11:38:28.364Z,5.30
2018-06-11T11:40:56.564Z,5.97
2018-06-11T11:43:26.592Z,5.67
2018-06-11T11:45:54.766Z,5.53
2018-06-11T11:48:22.945Z,5.70
2018-06-11T11:50:51.123Z,5.90
2018-06-11T11:53:19.310Z,6.90
2018-06-11T11:55:47.500Z,5.53
2018-06-11T11:58:15.676Z,6.23
2018-06-11T12:00:43.899Z,6.33
2018-06-11T12:03:11.873Z,5.57
2018-06-11T12:05:40.080Z,7.30
2018-06-11T12:08:08.011Z,6.20
2018-06-11T12:10:36.196Z,6.40
2018-06-11T12:13:04.436Z,6.70
2018-06-11T12:15:32.612Z,5.03
2018-06-11T12:18:00.787Z,7.07
2018-06-11T12:20:28.976Z,5.60
2018-06-11T12:22:57.209Z,6.83
2018-06-11T12:25:25.369Z,6.10
2018-06-11T12:27:53.592Z,6.60
2018-06-11T12:30:21.763Z,5.30
2018-06-11T12:32:49.952Z,7.10
2018-06-11T12:35:18.170Z,7.13
2018-06-11T12:37:46.335Z,7.03
2018-06-11T12:40:14.584Z,6.90
2018-06-11T12:42:42.783Z,7.77
2018-06-11T12:45:10.965Z,7.23
2018-06-11T12:47:45.539Z,7.40
2018-06-11T12:50:13.715Z,7.13
2018-06-11T12:52:41.944Z,7.00
2018-06-11T12:55:09.892Z,6.37
2018-06-11T12:57:37.839Z,6.80
2018-06-11T13:00:06.031Z,5.37
2018-06-11T13:02:33.995Z,5.83
2018-06-11T13:05:01.955Z,5.30
2018-06-11T13:07:30.131Z,6.90
2018-06-11T13:09:58.100Z,6.10
2018-06-11T13:12:26.032Z,5.93
2018-06-11T13:14:54.219Z,5.93
2018-06-11T13:17:22.480Z,6.23
2018-06-11T13:19:50.672Z,6.50
2018-06-11T13:22:18.849Z,6.13
2018-06-11T13:24:47.043Z,6.20
2018-06-11T13:27:15.063Z,6.00
2018-06-11T13:29:43.322Z,7.47
2018-06-11T13:32:11.528Z,8.07
2018-06-11T13:34:41.277Z,6.17
2018-06-11T13:37:09.260Z,6.20
2018-06-11T13:39:37.420Z,6.57
2018-06-11T13:42:06.179Z,6.30
2018-06-11T13:44:34.362Z,7.87
2018-06-11T13:47:02.556Z,6.07
2018-06-11T13:49:30.539Z,5.67
2018-06-11T13:51:59.052Z,5.60
2018-06-11T13:54:27.718Z,5.63
2018-06-11T13:56:55.960Z,7.10
2018-06-11T13:59:24.136Z,6.30
2018-06-11T14:01:52.107Z,5.47
2018-06-11T14:04:20.644Z,5.70
2018-06-11T14:06:48.877Z,5.80
2018-06-11T14:09:17.156Z,5.97
2018-06-11T14:11:45.371Z,5.43
2018-06-11T14:14:13.609Z,5.97
2018-06-11T14:16:41.770Z,5.77
2018-06-11T14:19:09.962Z,5.90
2018-06-11T14:21:38.144Z,6.30
2018-06-11T14:24:06.340Z,5.80
2018-06-11T14:26:34.519Z,5.40
2018-06-11T14:29:02.684Z,6.10
2018-06-11T14:31:30.872Z,5.60
2018-06-11T14:33:59.072Z,5.47
2018-06-11T14:36:27.040Z,5.70
2018-06-11T14:38:55.057Z,7.23
2018-06-11T14:41:23.232Z,6.57
2018-06-11T14:43:51.416Z,6.33
2018-06-11T14:46:19.592Z,5.80
2018-06-11T14:48:54.627Z,6.20
2018-06-11T14:51:22.811Z,6.37
2018-06-11T14:53:51.016Z,7.40
2018-06-11T14:56:18.952Z,8.07
2018-06-11T14:58:47.168Z,9.10
2018-06-11T15:01:15.944Z,7.60
2018-06-11T15:03:44.548Z,7.07
2018-06-11T15:06:12.875Z,8.00
2018-06-11T15:08:41.866Z,8.07
2018-06-11T15:11:09.856Z,9.17
2018-06-11T15:13:37.802Z,7.20
2018-06-11T15:16:06.061Z,7.03
2018-06-11T15:18:34.249Z,7.50
2018-06-11T15:21:02.488Z,8.70
2018-06-11T15:23:30.740Z,7.30
2018-06-11T15:25:58.895Z,7.03
2018-06-11T15:28:27.828Z,8.97
2018-06-11T15:30:56.050Z,6.50
2018-06-11T15:33:24.326Z,7.33
2018-06-11T15:35:52.721Z,7.47
2018-06-11T15:38:20.984Z,7.63
2018-06-11T15:40:49.185Z,9.10
2018-06-11T15:43:17.455Z,6.40
2018-06-11T15:45:45.665Z,7.20
2018-06-11T15:48:13.836Z,8.97
2018-06-11T15:50:42.032Z,6.10
2018-06-11T15:53:10.277Z,6.37
2018-06-11T15:55:38.468Z,6.17
2018-06-11T15:58:06.640Z,6.30
2018-06-11T16:00:34.879Z,6.90
2018-06-11T16:03:02.832Z,6.10
2018-06-11T16:05:30.762Z,6.07
2018-06-11T16:07:58.951Z,6.37
2018-06-11T16:10:27.155Z,5.80
2018-06-11T16:12:55.108Z,5.90
2018-06-11T16:15:23.055Z,6.47
2018-06-11T16:17:51.218Z,6.90
2018-06-11T16:20:19.392Z,6.33
2018-06-11T16:22:47.618Z,7.87
2018-06-11T16:25:15.797Z,6.20
2018-06-11T16:27:43.834Z,5.93
2018-06-11T16:30:11.996Z,6.37
2018-06-11T16:32:40.176Z,6.00
2018-06-11T16:35:08.363Z,6.00
2018-06-11T16:37:36.579Z,5.70
2018-06-11T16:40:04.852Z,4.93
2018-06-11T16:42:32.989Z,4.63
2018-06-11T16:45:00.927Z,4.70
2018-06-11T16:47:29.161Z,4.50
2018-06-11T16:49:57.379Z,4.90
2018-06-11T16:52:25.591Z,4.53
2018-06-11T16:54:53.550Z,4.77
2018-06-11T16:57:21.480Z,5.07
2018-06-11T16:59:49.655Z,4.90
2018-06-11T17:02:17.839Z,5.20
2018-06-11T17:04:46.028Z,5.10
2018-06-11T17:07:14.249Z,4.60
2018-06-11T17:09:42.470Z,5.20
2018-06-11T17:12:10.725Z,4.30
2018-06-11T17:14:38.927Z,5.57
2018-06-11T17:17:07.167Z,5.33
2018-06-11T17:19:35.315Z,5.17
2018-06-11T17:22:03.455Z,4.90
2018-06-11T17:24:31.414Z,5.90
2018-06-11T17:26:59.577Z,5.50
2018-06-11T17:29:27.523Z,7.00
2018-06-11T17:31:55.684Z,7.20
2018-06-11T17:34:23.851Z,6.00
2018-06-11T17:36:52.061Z,6.20
2018-06-11T17:39:20.260Z,6.27
2018-06-11T17:41:49.076Z,7.07
2018-06-11T17:44:17.381Z,6.70
2018-06-11T17:46:46.009Z,6.73
2018-06-11T17:49:14.257Z,7.03
2018-06-11T17:51:42.418Z,6.57
2018-06-11T17:54:10.589Z,6.73
2018-06-11T17:56:38.748Z,7.70
2018-06-11T17:59:06.936Z,6.90
2018-06-11T18:01:35.101Z,6.60
2018-06-11T18:04:03.298Z,8.00
2018-06-11T18:06:31.445Z,7.40
2018-06-11T18:08:59.658Z,7.37
2018-06-11T18:11:27.824Z,7.60
2018-06-11T18:13:56.014Z,10.40
2018-06-11T18:16:24.187Z,9.00
2018-06-11T18:18:52.162Z,8.47
2018-06-11T18:21:20.108Z,9.17
2018-06-11T18:23:48.286Z,9.50
2018-06-11T18:26:16.499Z,8.10
2018-06-11T18:28:44.629Z,9.07
2018-06-11T18:31:12.816Z,8.43
2018-06-11T18:33:40.807Z,8.30
2018-06-11T18:36:08.971Z,9.13
2018-06-11T18:38:36.904Z,7.70
2018-06-11T18:41:05.116Z,7.97
2018-06-11T18:43:33.281Z,7.83
2018-06-11T18:46:01.220Z,7.10
2018-06-11T18:48:30.228Z,7.53
2018-06-11T18:50:58.454Z,6.53
2018-06-11T18:53:26.604Z,6.70
2018-06-11T18:55:54.824Z,7.90
2018-06-11T18:58:23.005Z,7.07
2018-06-11T19:00:51.459Z,6.50
2018-06-11T19:03:19.653Z,8.60
2018-06-11T19:05:47.862Z,7.13
2018-06-11T19:08:15.845Z,6.27
2018-06-11T19:10:44.052Z,7.33
2018-06-11T19:13:12.300Z,6.80
2018-06-11T19:15:40.583Z,7.83
2018-06-11T19:18:08.816Z,7.13
2018-06-11T19:20:37.115Z,8.10
2018-06-11T19:23:05.400Z,7.73
2018-06-11T19:25:33.700Z,7.33
2018-06-11T19:28:01.982Z,7.83
2018-06-11T19:30:30.864Z,8.50
2018-06-11T19:32:59.081Z,9.20
2018-06-11T19:35:27.309Z,8.00
2018-06-11T19:37:55.424Z,9.10
2018-06-11T19:40:23.611Z,9.30
2018-06-11T19:42:52.104Z,9.80
2018-06-11T19:45:20.299Z,9.20
2018-06-11T19:47:48.487Z,9.13
2018-06-11T19:50:16.740Z,9.37
2018-06-11T19:52:44.938Z,9.83
2018-06-11T19:55:19.845Z,10.83
2018-06-11T19:57:48.041Z,9.80
2018-06-11T20:00:16.249Z,10.40
2018-06-11T20:02:44.441Z,10.23
2018-06-11T20:05:12.685Z,9.73
2018-06-11T20:07:40.871Z,10.60
2018-06-11T20:10:09.059Z,11.10
2018-06-11T20:12:37.323Z,9.53
2018-06-11T20:15:05.536Z,9.70
2018-06-11T20:17:33.820Z,10.13
2018-06-11T20:20:02.025Z,10.87
2018-06-11T20:22:30.222Z,9.90
2018-06-11T20:24:58.532Z,11.17
2018-06-11T20:27:26.501Z,10.50
2018-06-11T20:29:54.688Z,10.50
2018-06-11T20:32:22.954Z,10.97
2018-06-11T20:34:51.156Z,10.73
2018-06-11T20:37:19.372Z,11.63
2018-06-11T20:39:47.561Z,11.30
2018-06-11T20:42:15.748Z,10.17
2018-06-11T20:44:44.256Z,11.70
2018-06-11T20:47:12.420Z,11.03
2018-06-11T20:49:40.644Z,11.60
2018-06-11T20:52:08.849Z,11.80
2018-06-11T20:54:37.029Z,11.33
2018-06-11T20:57:05.261Z,10.80
2018-06-11T20:59:33.684Z,12.20
2018-06-11T21:02:02.251Z,11.70
2018-06-11T21:04:30.667Z,11.17
2018-06-11T21:06:59.131Z,11.10
2018-06-11T21:09:27.328Z,11.70
2018-06-11T21:11:55.521Z,12.20
2018-06-11T21:14:23.696Z,13.23
2018-06-11T21:16:51.896Z,11.97
2018-06-11T21:19:20.156Z,11.57
2018-06-11T21:21:48.722Z,12.23
2018-06-11T21:25:20.259Z,13.10
2018-06-11T21:27:48.750Z,13.60
2018-06-11T21:30:16.944Z,12.43
2018-06-11T21:32:45.127Z,13.70
2018-06-11T21:35:13.303Z,14.53
2018-06-11T21:37:42.179Z,14.70
2018-06-11T21:40:10.378Z,12.80
2018-06-11T21:42:38.611Z,13.73
2018-06-11T21:45:06.783Z,15.07
2018-06-11T21:47:34.976Z,14.33
2018-06-11T21:50:03.220Z,14.47
2018-06-11T21:52:31.815Z,14.33
2018-06-11T21:54:59.999Z,15.47
2018-06-11T21:57:28.188Z,15.30
2018-06-11T21:59:56.611Z,15.90
2018-06-11T22:02:24.795Z,15.03
2018-06-11T22:04:53.297Z,15.13
2018-06-11T22:07:21.500Z,14.37
2018-06-11T22:09:49.704Z,15.10
2018-06-11T22:12:17.625Z,14.70
2018-06-11T22:14:45.816Z,16.87
2018-06-11T22:17:14.010Z,14.97
2018-06-11T22:19:48.464Z,16.00
2018-06-11T22:22:17.018Z,15.83
2018-06-11T22:24:44.967Z,16.40
2018-06-11T22:27:13.603Z,16.23
2018-06-11T22:29:41.780Z,18.33
2018-06-11T22:32:09.985Z,16.13
2018-06-11T22:34:38.860Z,17.37
2018-06-11T22:37:07.022Z,17.00
2018-06-11T22:39:35.211Z,16.40
2018-06-11T22:42:03.651Z,17.17
2018-06-11T22:44:31.820Z,16.50
2018-06-11T22:46:59.980Z,16.43
2018-06-11T22:49:28.451Z,16.20
2018-06-11T22:51:56.399Z,16.30
2018-06-11T22:54:24.856Z,15.10
2018-06-11T22:56:53.011Z,16.77
2018-06-11T22:59:21.167Z,18.03
2018-06-11T23:01:49.336Z,16.60
2018-06-11T23:04:17.524Z,15.00
2018-06-11T23:06:45.687Z,16.20
2018-06-11T23:09:13.842Z,15.67
2018-06-11T23:11:42.055Z,15.43
2018-06-11T23:14:10.242Z,16.13
2018-06-11T23:16:38.435Z,16.47
2018-06-11T23:19:06.584Z,14.37
2018-06-11T23:21:34.750Z,15.27
2018-06-11T23:24:02.970Z,17.33
2018-06-11T23:26:31.104Z,16.40
2018-06-11T23:28:59.296Z,15.90
2018-06-11T23:31:27.468Z,16.50
2018-06-11T23:33:55.648Z,14.37
2018-06-11T23:36:23.808Z,16.17
2018-06-11T23:38:51.989Z,16.23
2018-06-11T23:41:20.231Z,15.10
2018-06-11T23:43:48.391Z,17.93
2018-06-11T23:46:16.572Z,17.10
2018-06-11T23:48:44.752Z,16.90
2018-06-11T23:51:12.928Z,15.73
2018-06-11T23:53:41.115Z,15.30
2018-06-11T23:56:09.301Z,16.00
2018-06-11T23:58:37.480Z,14.93
